sensor_id;sensor_type;location;lat;lon;timestamp;pressure;altitude;pressure_sealevel;temperature
67515;BMP280;60646;55.802;37.032;2023-07-13T00:00:49;98815.78;;;17.98
67515;BMP280;60646;55.802;37.032;2023-07-13T00:03:14;98824.63;;;17.98
67515;BMP280;60646;55.802;37.032;2023-07-13T00:05:40;98823.66;;;18.03
67515;BMP280;60646;55.802;37.032;2023-07-13T00:08:07;98825.81;;;18.05
67515;BMP280;60646;55.802;37.032;2023-07-13T00:10:38;98832.56;;;18.13
67515;BMP280;60646;55.802;37.032;2023-07-13T00:13:04;98844.09;;;18.14
67515;BMP280;60646;55.802;37.032;2023-07-13T00:15:29;98848.78;;;18.13
67515;BMP280;60646;55.802;37.032;2023-07-13T00:17:57;98840.94;;;18.08
67515;BMP280;60646;55.802;37.032;2023-07-13T00:20:24;98825.50;;;18.01
67515;BMP280;60646;55.802;37.032;2023-07-13T00:22:52;98833.69;;;18.10
67515;BMP280;60646;55.802;37.032;2023-07-13T00:25:21;98837.66;;;18.09
67515;BMP280;60646;55.802;37.032;2023-07-13T00:27:51;98833.69;;;18.10
67515;BMP280;60646;55.802;37.032;2023-07-13T00:30:17;98825.44;;;18.08
67515;BMP280;60646;55.802;37.032;2023-07-13T00:32:44;98836.25;;;18.08
67515;BMP280;60646;55.802;37.032;2023-07-13T00:35:12;98815.47;;;17.94
67515;BMP280;60646;55.802;37.032;2023-07-13T00:37:38;98819.06;;;17.96
67515;BMP280;60646;55.802;37.032;2023-07-13T00:40:05;98827.97;;;18.06
67515;BMP280;60646;55.802;37.032;2023-07-13T00:42:31;98814.03;;;17.93
67515;BMP280;60646;55.802;37.032;2023-07-13T00:47:39;98812.59;;;17.92
67515;BMP280;60646;55.802;37.032;2023-07-13T00:50:09;98834.63;;;18.05
67515;BMP280;60646;55.802;37.032;2023-07-13T00:52:37;98824.78;;;18.00
67515;BMP280;60646;55.802;37.032;2023-07-13T00:55:07;98838.59;;;18.04
67515;BMP280;60646;55.802;37.032;2023-07-13T00:57:35;98835.91;;;18.04
67515;BMP280;60646;55.802;37.032;2023-07-13T01:00:03;98827.78;;;18.04
67515;BMP280;60646;55.802;37.032;2023-07-13T01:02:39;98819.22;;;17.98
67515;BMP280;60646;55.802;37.032;2023-07-13T01:05:12;98834.78;;;18.07
67515;BMP280;60646;55.802;37.032;2023-07-13T01:07:40;98829.06;;;18.03
67515;BMP280;60646;55.802;37.032;2023-07-13T01:10:35;98828.28;;;18.10
67515;BMP280;60646;55.802;37.032;2023-07-13T01:13:09;98801.38;;;17.95
67515;BMP280;60646;55.802;37.032;2023-07-13T01:15:44;98820.03;;;18.08
67515;BMP280;60646;55.802;37.032;2023-07-13T01:18:17;98815.72;;;18.05
67515;BMP280;60646;55.802;37.032;2023-07-13T01:23:23;98803.56;;;17.97
67515;BMP280;60646;55.802;37.032;2023-07-13T01:25:50;98801.56;;;17.97
67515;BMP280;60646;55.802;37.032;2023-07-13T01:28:16;98802.84;;;17.96
67515;BMP280;60646;55.802;37.032;2023-07-13T01:30:44;98813.16;;;18.07
67515;BMP280;60646;55.802;37.032;2023-07-13T01:33:13;98800.28;;;17.98
67515;BMP280;60646;55.802;37.032;2023-07-13T01:35:39;98783.44;;;17.90
67515;BMP280;60646;55.802;37.032;2023-07-13T01:38:05;98797.19;;;18.02
67515;BMP280;60646;55.802;37.032;2023-07-13T01:40:31;98788.03;;;17.97
67515;BMP280;60646;55.802;37.032;2023-07-13T01:42:58;98783.75;;;17.94
67515;BMP280;60646;55.802;37.032;2023-07-13T01:45:24;98790.84;;;18.07
67515;BMP280;60646;55.802;37.032;2023-07-13T01:47:50;98793.16;;;18.10
67515;BMP280;60646;55.802;37.032;2023-07-13T01:50:16;98795.91;;;18.03
67515;BMP280;60646;55.802;37.032;2023-07-13T01:52:42;98795.84;;;18.10
67515;BMP280;60646;55.802;37.032;2023-07-13T01:55:07;98780.81;;;18.00
67515;BMP280;60646;55.802;37.032;2023-07-13T01:57:33;98789.25;;;18.04
67515;BMP280;60646;55.802;37.032;2023-07-13T02:00:00;98787.25;;;18.04
67515;BMP280;60646;55.802;37.032;2023-07-13T02:02:26;98782.25;;;18.01
67515;BMP280;60646;55.802;37.032;2023-07-13T02:04:52;98794.56;;;18.11
67515;BMP280;60646;55.802;37.032;2023-07-13T02:07:17;98784.38;;;18.02
67515;BMP280;60646;55.802;37.032;2023-07-13T02:09:43;98778.97;;;18.02
67515;BMP280;60646;55.802;37.032;2023-07-13T02:12:09;98766.03;;;18.01
67515;BMP280;60646;55.802;37.032;2023-07-13T02:14:35;98790.59;;;18.12
67515;BMP280;60646;55.802;37.032;2023-07-13T02:17:02;98781.16;;;18.04
67515;BMP280;60646;55.802;37.032;2023-07-13T02:19:29;98783.38;;;18.15
67515;BMP280;60646;55.802;37.032;2023-07-13T02:21:55;98767.06;;;18.05
67515;BMP280;60646;55.802;37.032;2023-07-13T02:24:21;98779.94;;;18.14
67515;BMP280;60646;55.802;37.032;2023-07-13T02:26:47;98771.91;;;18.07
67515;BMP280;60646;55.802;37.032;2023-07-13T02:29:14;98761.34;;;18.01
67515;BMP280;60646;55.802;37.032;2023-07-13T02:31:40;98753.25;;;18.01
67515;BMP280;60646;55.802;37.032;2023-07-13T02:34:07;98786.69;;;18.23
67515;BMP280;60646;55.802;37.032;2023-07-13T02:36:33;98774.84;;;18.19
67515;BMP280;60646;55.802;37.032;2023-07-13T02:39:00;98778.88;;;18.27
67515;BMP280;60646;55.802;37.032;2023-07-13T02:41:27;98764.03;;;18.19
67515;BMP280;60646;55.802;37.032;2023-07-13T02:43:53;98749.19;;;18.10
67515;BMP280;60646;55.802;37.032;2023-07-13T02:46:19;98757.53;;;18.22
67515;BMP280;60646;55.802;37.032;2023-07-13T02:48:45;98762.53;;;18.25
67515;BMP280;60646;55.802;37.032;2023-07-13T02:51:13;98764.97;;;18.31
67515;BMP280;60646;55.802;37.032;2023-07-13T02:53:39;98756.72;;;18.29
67515;BMP280;60646;55.802;37.032;2023-07-13T02:56:05;98769.75;;;18.40
67515;BMP280;60646;55.802;37.032;2023-07-13T02:58:32;98744.78;;;18.32
67515;BMP280;60646;55.802;37.032;2023-07-13T03:01:06;98758.53;;;18.43
67515;BMP280;60646;55.802;37.032;2023-07-13T03:03:33;98763.69;;;18.49
67515;BMP280;60646;55.802;37.032;2023-07-13T03:06:03;98743.69;;;18.35
67515;BMP280;60646;55.802;37.032;2023-07-13T03:08:36;98766.13;;;18.54
67515;BMP280;60646;55.802;37.032;2023-07-13T03:11:05;98771.00;;;18.56
67515;BMP280;60646;55.802;37.032;2023-07-13T03:13:34;98765.03;;;18.57
67515;BMP280;60646;55.802;37.032;2023-07-13T03:16:02;98744.59;;;18.47
67515;BMP280;60646;55.802;37.032;2023-07-13T03:18:29;98739.19;;;18.47
67515;BMP280;60646;55.802;37.032;2023-07-13T03:20:58;98749.53;;;18.58
67515;BMP280;60646;55.802;37.032;2023-07-13T03:23:24;98773.88;;;18.67
67515;BMP280;60646;55.802;37.032;2023-07-13T03:26:12;98774.78;;;18.70
67515;BMP280;60646;55.802;37.032;2023-07-13T03:28:41;98764.06;;;18.72
67515;BMP280;60646;55.802;37.032;2023-07-13T03:31:32;98772.25;;;18.81
67515;BMP280;60646;55.802;37.032;2023-07-13T03:33:58;98769.50;;;18.72
67515;BMP280;60646;55.802;37.032;2023-07-13T03:36:27;98781.09;;;18.82
67515;BMP280;60646;55.802;37.032;2023-07-13T03:38:58;98770.38;;;18.74
67515;BMP280;60646;55.802;37.032;2023-07-13T03:41:30;98770.88;;;18.80
67515;BMP280;60646;55.802;37.032;2023-07-13T03:43:57;98774.41;;;18.83
67515;BMP280;60646;55.802;37.032;2023-07-13T03:46:25;98765.03;;;18.84
67515;BMP280;60646;55.802;37.032;2023-07-13T03:48:51;98772.00;;;18.87
67515;BMP280;60646;55.802;37.032;2023-07-13T03:51:18;98765.03;;;18.84
67515;BMP280;60646;55.802;37.032;2023-07-13T03:53:46;98777.03;;;19.00
67515;BMP280;60646;55.802;37.032;2023-07-13T03:56:15;98778.50;;;19.01
67515;BMP280;60646;55.802;37.032;2023-07-13T03:58:43;98777.22;;;19.02
67515;BMP280;60646;55.802;37.032;2023-07-13T04:01:19;98778.78;;;19.05
67515;BMP280;60646;55.802;37.032;2023-07-13T04:03:45;98774.81;;;19.06
67515;BMP280;60646;55.802;37.032;2023-07-13T04:06:37;98784.38;;;19.17
67515;BMP280;60646;55.802;37.032;2023-07-13T04:09:03;98775.09;;;19.10
67515;BMP280;60646;55.802;37.032;2023-07-13T04:11:34;98783.53;;;19.14
67515;BMP280;60646;55.802;37.032;2023-07-13T04:14:02;98774.69;;;19.14
67515;BMP280;60646;55.802;37.032;2023-07-13T04:16:28;98761.56;;;19.10
67515;BMP280;60646;55.802;37.032;2023-07-13T04:18:55;98781.41;;;19.22
67515;BMP280;60646;55.802;37.032;2023-07-13T04:21:30;98772.44;;;19.20
67515;BMP280;60646;55.802;37.032;2023-07-13T04:23:56;98766.00;;;19.15
67515;BMP280;60646;55.802;37.032;2023-07-13T04:26:22;98772.16;;;19.16
67515;BMP280;60646;55.802;37.032;2023-07-13T04:28:50;98760.31;;;19.11
67515;BMP280;60646;55.802;37.032;2023-07-13T04:31:16;98772.00;;;19.23
67515;BMP280;60646;55.802;37.032;2023-07-13T04:33:42;98764.88;;;19.18
67515;BMP280;60646;55.802;37.032;2023-07-13T04:36:08;98783.13;;;19.27
67515;BMP280;60646;55.802;37.032;2023-07-13T04:38:35;98785.16;;;19.36
67515;BMP280;60646;55.802;37.032;2023-07-13T04:41:05;98790.31;;;19.42
67515;BMP280;60646;55.802;37.032;2023-07-13T04:43:32;98789.75;;;19.43
67515;BMP280;60646;55.802;37.032;2023-07-13T04:46:07;98791.34;;;19.46
67515;BMP280;60646;55.802;37.032;2023-07-13T04:48:37;98791.78;;;19.52
67515;BMP280;60646;55.802;37.032;2023-07-13T04:51:03;98793.06;;;19.51
67515;BMP280;60646;55.802;37.032;2023-07-13T04:53:30;98781.66;;;19.63
67515;BMP280;60646;55.802;37.032;2023-07-13T04:55:56;98758.25;;;19.48
67515;BMP280;60646;55.802;37.032;2023-07-13T04:58:23;98785.09;;;19.73
67515;BMP280;60646;55.802;37.032;2023-07-13T05:00:49;98784.13;;;19.78
67515;BMP280;60646;55.802;37.032;2023-07-13T05:03:16;98757.44;;;19.65
67515;BMP280;60646;55.802;37.032;2023-07-13T05:05:41;98776.41;;;19.84
67515;BMP280;60646;55.802;37.032;2023-07-13T05:08:07;98770.56;;;19.78
67515;BMP280;60646;55.802;37.032;2023-07-13T05:10:33;98780.41;;;19.92
67515;BMP280;60646;55.802;37.032;2023-07-13T05:12:59;98782.69;;;19.96
67515;BMP280;60646;55.802;37.032;2023-07-13T05:15:26;98784.97;;;19.99
67515;BMP280;60646;55.802;37.032;2023-07-13T05:18:10;98775.84;;;19.95
67515;BMP280;60646;55.802;37.032;2023-07-13T05:20:36;98782.25;;;20.09
67515;BMP280;60646;55.802;37.032;2023-07-13T05:23:01;98782.84;;;20.07
67515;BMP280;60646;55.802;37.032;2023-07-13T05:25:27;98772.41;;;20.04
67515;BMP280;60646;55.802;37.032;2023-07-13T05:27:53;98763.28;;;20.09
67515;BMP280;60646;55.802;37.032;2023-07-13T05:30:19;98772.13;;;20.19
67515;BMP280;60646;55.802;37.032;2023-07-13T05:32:44;98787.38;;;20.33
67515;BMP280;60646;55.802;37.032;2023-07-13T05:35:11;98784.25;;;20.37
67515;BMP280;60646;55.802;37.032;2023-07-13T05:37:37;98780.66;;;20.44
67515;BMP280;60646;55.802;37.032;2023-07-13T05:40:03;98775.34;;;20.46
67515;BMP280;60646;55.802;37.032;2023-07-13T05:42:30;98768.38;;;20.53
67515;BMP280;60646;55.802;37.032;2023-07-13T05:44:56;98772.34;;;20.61
67515;BMP280;60646;55.802;37.032;2023-07-13T05:47:22;98762.47;;;20.66
67515;BMP280;60646;55.802;37.032;2023-07-13T05:49:48;98772.97;;;20.81
67515;BMP280;60646;55.802;37.032;2023-07-13T05:52:14;98772.81;;;20.88
67515;BMP280;60646;55.802;37.032;2023-07-13T05:54:40;98764.34;;;20.94
67515;BMP280;60646;55.802;37.032;2023-07-13T05:57:05;98767.72;;;21.04
67515;BMP280;60646;55.802;37.032;2023-07-13T06:10:13;98744.66;;;21.36
67515;BMP280;60646;55.802;37.032;2023-07-13T06:16:56;98759.41;;;21.75
67515;BMP280;60646;55.802;37.032;2023-07-13T06:20:06;98751.88;;;21.85
67515;BMP280;60646;55.802;37.032;2023-07-13T06:22:32;98757.69;;;21.91
67515;BMP280;60646;55.802;37.032;2023-07-13T06:24:58;98738.03;;;21.81
67515;BMP280;60646;55.802;37.032;2023-07-13T06:27:24;98761.06;;;22.01
67515;BMP280;60646;55.802;37.032;2023-07-13T06:29:50;98750.75;;;22.00
67515;BMP280;60646;55.802;37.032;2023-07-13T06:32:16;98750.28;;;22.03
67515;BMP280;60646;55.802;37.032;2023-07-13T06:34:42;98750.53;;;22.07
67515;BMP280;60646;55.802;37.032;2023-07-13T06:37:09;98764.06;;;22.17
67515;BMP280;60646;55.802;37.032;2023-07-13T06:39:34;98735.28;;;22.02
67515;BMP280;60646;55.802;37.032;2023-07-13T06:42:00;98746.22;;;22.14
67515;BMP280;60646;55.802;37.032;2023-07-13T06:44:26;98751.16;;;22.17
67515;BMP280;60646;55.802;37.032;2023-07-13T06:46:51;98760.03;;;22.29
67515;BMP280;60646;55.802;37.032;2023-07-13T06:49:17;98757.47;;;22.31
67515;BMP280;60646;55.802;37.032;2023-07-13T06:51:43;98753.47;;;22.32
67515;BMP280;60646;55.802;37.032;2023-07-13T06:54:09;98751.06;;;22.38
67515;BMP280;60646;55.802;37.032;2023-07-13T06:56:35;98749.91;;;22.41
67515;BMP280;60646;55.802;37.032;2023-07-13T06:59:01;98741.38;;;22.35
67515;BMP280;60646;55.802;37.032;2023-07-13T07:01:27;98745.91;;;22.42
67515;BMP280;60646;55.802;37.032;2023-07-13T07:03:52;98748.94;;;22.48
67515;BMP280;60646;55.802;37.032;2023-07-13T07:06:24;98745.19;;;22.53
67515;BMP280;60646;55.802;37.032;2023-07-13T07:08:52;98749.19;;;22.52
67515;BMP280;60646;55.802;37.032;2023-07-13T07:11:23;98754.88;;;22.56
67515;BMP280;60646;55.802;37.032;2023-07-13T07:13:50;98754.19;;;22.67
67515;BMP280;60646;55.802;37.032;2023-07-13T07:16:24;98755.13;;;22.60
67515;BMP280;60646;55.802;37.032;2023-07-13T07:18:50;98747.09;;;22.51
67515;BMP280;60646;55.802;37.032;2023-07-13T07:21:16;98742.81;;;22.48
67515;BMP280;60646;55.802;37.032;2023-07-13T07:23:45;98763.91;;;22.59
67515;BMP280;60646;55.802;37.032;2023-07-13T07:26:11;98772.66;;;22.57
67515;BMP280;60646;55.802;37.032;2023-07-13T07:28:37;98768.41;;;22.54
67515;BMP280;60646;55.802;37.032;2023-07-13T07:31:03;98759.59;;;22.44
67515;BMP280;60646;55.802;37.032;2023-07-13T07:33:29;98762.00;;;22.50
67515;BMP280;60646;55.802;37.032;2023-07-13T07:36:05;98755.84;;;22.49
67515;BMP280;60646;55.802;37.032;2023-07-13T07:38:31;98756.31;;;22.46
67515;BMP280;60646;55.802;37.032;2023-07-13T07:40:57;98757.47;;;22.43
67515;BMP280;60646;55.802;37.032;2023-07-13T07:43:23;98773.59;;;22.50
67515;BMP280;60646;55.802;37.032;2023-07-13T07:45:51;98764.16;;;22.51
67515;BMP280;60646;55.802;37.032;2023-07-13T07:48:17;98758.91;;;22.44
67515;BMP280;60646;55.802;37.032;2023-07-13T07:50:43;98751.78;;;22.39
67515;BMP280;60646;55.802;37.032;2023-07-13T07:53:18;98770.25;;;22.52
67515;BMP280;60646;55.802;37.032;2023-07-13T07:55:44;98755.81;;;22.38
67515;BMP280;60646;55.802;37.032;2023-07-13T07:58:10;98769.91;;;22.46
67515;BMP280;60646;55.802;37.032;2023-07-13T08:00:36;98749.53;;;22.35
67515;BMP280;60646;55.802;37.032;2023-07-13T08:03:02;98763.28;;;22.37
67515;BMP280;60646;55.802;37.032;2023-07-13T08:05:28;98762.09;;;22.40
67515;BMP280;60646;55.802;37.032;2023-07-13T08:07:55;98768.63;;;22.47
67515;BMP280;60646;55.802;37.032;2023-07-13T08:10:39;98757.72;;;22.35
67515;BMP280;60646;55.802;37.032;2023-07-13T08:13:05;98767.75;;;22.44
67515;BMP280;60646;55.802;37.032;2023-07-13T08:15:31;98757.00;;;22.35
67515;BMP280;60646;55.802;37.032;2023-07-13T08:17:56;98755.00;;;22.35
67515;BMP280;60646;55.802;37.032;2023-07-13T08:20:22;98768.59;;;22.35
67515;BMP280;60646;55.802;37.032;2023-07-13T08:22:48;98774.50;;;22.32
67515;BMP280;60646;55.802;37.032;2023-07-13T08:25:38;98781.63;;;22.48
67515;BMP280;60646;55.802;37.032;2023-07-13T08:28:04;98769.41;;;22.26
67515;BMP280;60646;55.802;37.032;2023-07-13T08:30:30;98765.00;;;22.21
67515;BMP280;60646;55.802;37.032;2023-07-13T08:32:56;98767.16;;;22.23
67515;BMP280;60646;55.802;37.032;2023-07-13T08:35:22;98771.16;;;22.22
67515;BMP280;60646;55.802;37.032;2023-07-13T08:37:48;98777.72;;;22.28
67515;BMP280;60646;55.802;37.032;2023-07-13T08:40:14;98766.19;;;22.18
67515;BMP280;60646;55.802;37.032;2023-07-13T08:42:46;98775.88;;;22.21
67515;BMP280;60646;55.802;37.032;2023-07-13T08:45:43;98783.97;;;22.31
67515;BMP280;60646;55.802;37.032;2023-07-13T08:48:18;98779.91;;;22.20
67515;BMP280;60646;55.802;37.032;2023-07-13T08:50:58;98778.75;;;22.23
67515;BMP280;60646;55.802;37.032;2023-07-13T08:53:29;98767.50;;;22.17
67515;BMP280;60646;55.802;37.032;2023-07-13T08:55:58;98766.06;;;22.16
67515;BMP280;60646;55.802;37.032;2023-07-13T08:58:27;98783.25;;;22.30
67515;BMP280;60646;55.802;37.032;2023-07-13T09:03:41;98770.44;;;22.21
67515;BMP280;60646;55.802;37.032;2023-07-13T09:06:11;98773.31;;;22.23
67515;BMP280;60646;55.802;37.032;2023-07-13T09:09:07;98776.63;;;22.33
67515;BMP280;60646;55.802;37.032;2023-07-13T09:11:50;98779.25;;;22.31
67515;BMP280;60646;55.802;37.032;2023-07-13T09:16:48;98773.06;;;22.19
67515;BMP280;60646;55.802;37.032;2023-07-13T09:19:30;98771.88;;;22.22
67515;BMP280;60646;55.802;37.032;2023-07-13T09:21:59;98780.28;;;22.26
67515;BMP280;60646;55.802;37.032;2023-07-13T09:24:32;98781.09;;;22.17
67515;BMP280;60646;55.802;37.032;2023-07-13T09:27:01;98785.94;;;22.19
67515;BMP280;60646;55.802;37.032;2023-07-13T09:29:33;98786.53;;;22.17
67515;BMP280;60646;55.802;37.032;2023-07-13T09:32:06;98801.47;;;22.28
67515;BMP280;60646;55.802;37.032;2023-07-13T09:34:34;98792.91;;;22.22
67515;BMP280;60646;55.802;37.032;2023-07-13T09:37:00;98802.06;;;22.26
67515;BMP280;60646;55.802;37.032;2023-07-13T09:39:30;98801.81;;;22.22
67515;BMP280;60646;55.802;37.032;2023-07-13T09:42:07;98790.34;;;22.24
67515;BMP280;60646;55.802;37.032;2023-07-13T09:44:43;98783.44;;;22.11
67515;BMP280;60646;55.802;37.032;2023-07-13T09:47:16;98816.66;;;22.42
67515;BMP280;60646;55.802;37.032;2023-07-13T09:49:42;98795.41;;;22.18
67515;BMP280;60646;55.802;37.032;2023-07-13T09:52:15;98804.06;;;22.26
67515;BMP280;60646;55.802;37.032;2023-07-13T09:54:45;98790.78;;;22.20
67515;BMP280;60646;55.802;37.032;2023-07-13T09:57:19;98780.84;;;22.13
67515;BMP280;60646;55.802;37.032;2023-07-13T09:59:52;98803.97;;;22.24
67515;BMP280;60646;55.802;37.032;2023-07-13T10:02:35;98800.03;;;22.27
67515;BMP280;60646;55.802;37.032;2023-07-13T10:05:05;98788.88;;;22.11
67515;BMP280;60646;55.802;37.032;2023-07-13T10:07:32;98802.16;;;22.17
67515;BMP280;60646;55.802;37.032;2023-07-13T10:10:03;98793.63;;;22.11
67515;BMP280;60646;55.802;37.032;2023-07-13T10:12:35;98805.59;;;22.17
67515;BMP280;60646;55.802;37.032;2023-07-13T10:15:02;98810.19;;;22.15
67515;BMP280;60646;55.802;37.032;2023-07-13T10:17:32;98807.81;;;22.09
67515;BMP280;60646;55.802;37.032;2023-07-13T10:20:04;98812.06;;;22.12
67515;BMP280;60646;55.802;37.032;2023-07-13T10:24:57;98800.31;;;21.98
67515;BMP280;60646;55.802;37.032;2023-07-13T10:27:41;98819.66;;;22.14
67515;BMP280;60646;55.802;37.032;2023-07-13T10:30:34;98821.66;;;22.13
67515;BMP280;60646;55.802;37.032;2023-07-13T10:33:02;98825.88;;;22.05
67515;BMP280;60646;55.802;37.032;2023-07-13T10:35:30;98820.28;;;22.03
67515;BMP280;60646;55.802;37.032;2023-07-13T10:38:03;98802.53;;;21.90
67515;BMP280;60646;55.802;37.032;2023-07-13T10:40:37;98796.38;;;21.89
67515;BMP280;60646;55.802;37.032;2023-07-13T10:43:12;98802.53;;;21.90
67515;BMP280;60646;55.802;37.032;2023-07-13T10:45:40;98791.97;;;21.84
67515;BMP280;60646;55.802;37.032;2023-07-13T10:48:09;98793.97;;;21.84
67515;BMP280;60646;55.802;37.032;2023-07-13T10:50:38;98813.72;;;22.06
67515;BMP280;60646;55.802;37.032;2023-07-13T10:53:28;98816.75;;;22.00
67515;BMP280;60646;55.802;37.032;2023-07-13T10:56:01;98806.91;;;21.95
67515;BMP280;60646;55.802;37.032;2023-07-13T10:58:42;98798.75;;;21.95
67515;BMP280;60646;55.802;37.032;2023-07-13T11:01:11;98803.38;;;21.92
67515;BMP280;60646;55.802;37.032;2023-07-13T11:04:00;98807.50;;;21.93
67515;BMP280;60646;55.802;37.032;2023-07-13T11:08:57;98807.84;;;21.88
67515;BMP280;60646;55.802;37.032;2023-07-13T11:21:23;98794.25;;;21.88
67515;BMP280;60646;55.802;37.032;2023-07-13T11:23:54;98804.06;;;21.93
67515;BMP280;60646;55.802;37.032;2023-07-13T11:31:42;98802.91;;;21.96
67515;BMP280;60646;55.802;37.032;2023-07-13T11:34:14;98805.75;;;21.98
67515;BMP280;60646;55.802;37.032;2023-07-13T11:36:43;98783.56;;;21.80
67515;BMP280;60646;55.802;37.032;2023-07-13T11:39:19;98799.72;;;22.00
67515;BMP280;60646;55.802;37.032;2023-07-13T11:41:53;98793.56;;;21.99
67515;BMP280;60646;55.802;37.032;2023-07-13T11:44:23;98796.03;;;21.95
67515;BMP280;60646;55.802;37.032;2023-07-13T11:46:55;98773.66;;;21.85
67515;BMP280;60646;55.802;37.032;2023-07-13T11:49:25;98800.19;;;21.96
67515;BMP280;60646;55.802;37.032;2023-07-13T11:51:55;98787.25;;;21.85
67515;BMP280;60646;55.802;37.032;2023-07-13T11:54:26;98800.75;;;21.94
67515;BMP280;60646;55.802;37.032;2023-07-13T11:56:53;98783.81;;;21.84
67515;BMP280;60646;55.802;37.032;2023-07-13T11:59:20;98799.22;;;21.91
67515;BMP280;60646;55.802;37.032;2023-07-13T12:01:52;98798.91;;;21.97
67515;BMP280;60646;55.802;37.032;2023-07-13T12:06:54;98791.31;;;21.96
67515;BMP280;60646;55.802;37.032;2023-07-13T12:09:20;98789.19;;;21.94
67515;BMP280;60646;55.802;37.032;2023-07-13T12:11:51;98775.09;;;21.86
67515;BMP280;60646;55.802;37.032;2023-07-13T12:14:18;98785.03;;;21.93
67515;BMP280;60646;55.802;37.032;2023-07-13T12:16:47;98754.63;;;21.85
67515;BMP280;60646;55.802;37.032;2023-07-13T12:19:18;98764.34;;;21.88
67515;BMP280;60646;55.802;37.032;2023-07-13T12:21:45;98761.59;;;21.88
67515;BMP280;60646;55.802;37.032;2023-07-13T12:24:16;98757.31;;;21.85
67515;BMP280;60646;55.802;37.032;2023-07-13T12:26:42;98772.22;;;21.84
67515;BMP280;60646;55.802;37.032;2023-07-13T12:29:15;98759.34;;;21.84
67515;BMP280;60646;55.802;37.032;2023-07-13T12:31:43;98781.03;;;21.94
67515;BMP280;60646;55.802;37.032;2023-07-13T12:36:51;98774.41;;;21.97
67515;BMP280;60646;55.802;37.032;2023-07-13T12:39:36;98769.06;;;21.87
67515;BMP280;60646;55.802;37.032;2023-07-13T12:42:29;98764.22;;;21.98
67515;BMP280;60646;55.802;37.032;2023-07-13T12:45:00;98754.75;;;21.87
67515;BMP280;60646;55.802;37.032;2023-07-13T12:47:40;98755.66;;;21.80
67515;BMP280;60646;55.802;37.032;2023-07-13T12:50:20;98762.78;;;21.85
67515;BMP280;60646;55.802;37.032;2023-07-13T12:52:53;98785.63;;;21.91
67515;BMP280;60646;55.802;37.032;2023-07-13T12:55:47;98777.00;;;21.95
67515;BMP280;60646;55.802;37.032;2023-07-13T12:58:27;98782.19;;;21.91
67515;BMP280;60646;55.802;37.032;2023-07-13T13:00:56;98787.25;;;21.85
67515;BMP280;60646;55.802;37.032;2023-07-13T13:06:05;98787.38;;;21.87
67515;BMP280;60646;55.802;37.032;2023-07-13T13:08:34;98769.31;;;21.70
67515;BMP280;60646;55.802;37.032;2023-07-13T13:11:03;98762.00;;;21.73
67515;BMP280;60646;55.802;37.032;2023-07-13T13:13:29;98760.19;;;21.66
67515;BMP280;60646;55.802;37.032;2023-07-13T13:15:56;98776.63;;;21.68
67515;BMP280;60646;55.802;37.032;2023-07-13T13:18:23;98769.31;;;21.70
67515;BMP280;60646;55.802;37.032;2023-07-13T13:20:50;98783.88;;;21.75
67515;BMP280;60646;55.802;37.032;2023-07-13T13:23:20;98766.94;;;21.65
67515;BMP280;60646;55.802;37.032;2023-07-13T13:25:50;98765.97;;;21.60
67515;BMP280;60646;55.802;37.032;2023-07-13T13:28:19;98774.97;;;21.63
67515;BMP280;60646;55.802;37.032;2023-07-13T13:30:47;98767.84;;;21.58
67515;BMP280;60646;55.802;37.032;2023-07-13T13:33:15;98770.09;;;21.61
67515;BMP280;60646;55.802;37.032;2023-07-13T13:35:42;98763.34;;;21.51
67515;BMP280;60646;55.802;37.032;2023-07-13T13:38:17;98782.06;;;21.68
67515;BMP280;60646;55.802;37.032;2023-07-13T13:40:45;98773.53;;;21.62
67515;BMP280;60646;55.802;37.032;2023-07-13T13:43:21;98756.72;;;21.54
67515;BMP280;60646;55.802;37.032;2023-07-13T13:45:47;98760.63;;;21.51
67515;BMP280;60646;55.802;37.032;2023-07-13T13:48:18;98756.00;;;21.53
67515;BMP280;60646;55.802;37.032;2023-07-13T13:50:45;98759.31;;;21.52
67515;BMP280;60646;55.802;37.032;2023-07-13T13:53:12;98765.25;;;21.60
67515;BMP280;60646;55.802;37.032;2023-07-13T13:55:40;98754.47;;;21.50
67515;BMP280;60646;55.802;37.032;2023-07-13T13:58:10;98751.59;;;21.48
67515;BMP280;60646;55.802;37.032;2023-07-13T14:00:39;98742.22;;;21.40
67515;BMP280;60646;55.802;37.032;2023-07-13T14:03:13;98764.47;;;21.48
67515;BMP280;60646;55.802;37.032;2023-07-13T14:05:39;98765.84;;;21.37
67515;BMP280;60646;55.802;37.032;2023-07-13T14:08:13;98758.06;;;21.43
67515;BMP280;60646;55.802;37.032;2023-07-13T14:10:40;98757.44;;;21.33
67515;BMP280;60646;55.802;37.032;2023-07-13T14:13:24;98750.00;;;21.34
67515;BMP280;60646;55.802;37.032;2023-07-13T14:15:53;98758.00;;;21.32
67515;BMP280;60646;55.802;37.032;2023-07-13T14:18:19;98775.53;;;21.40
67515;BMP280;60646;55.802;37.032;2023-07-13T14:20:46;98776.13;;;21.39
67515;BMP280;60646;55.802;37.032;2023-07-13T14:23:15;98740.34;;;21.21
67515;BMP280;60646;55.802;37.032;2023-07-13T14:25:43;98744.34;;;21.20
67515;BMP280;60646;55.802;37.032;2023-07-13T14:28:35;98768.50;;;21.47
67515;BMP280;60646;55.802;37.032;2023-07-13T14:31:01;98742.03;;;21.26
67515;BMP280;60646;55.802;37.032;2023-07-13T14:33:26;98772.00;;;21.38
67515;BMP280;60646;55.802;37.032;2023-07-13T14:35:52;98748.06;;;21.25
67515;BMP280;60646;55.802;37.032;2023-07-13T14:38:19;98770.56;;;21.37
67515;BMP280;60646;55.802;37.032;2023-07-13T14:40:46;98752.03;;;21.24
67515;BMP280;60646;55.802;37.032;2023-07-13T14:43:14;98749.66;;;21.18
67515;BMP280;60646;55.802;37.032;2023-07-13T14:45:43;98767.13;;;21.36
67515;BMP280;60646;55.802;37.032;2023-07-13T14:48:16;98772.00;;;21.38
67515;BMP280;60646;55.802;37.032;2023-07-13T14:50:42;98762.75;;;21.31
67515;BMP280;60646;55.802;37.032;2023-07-13T14:53:10;98756.59;;;21.31
67515;BMP280;60646;55.802;37.032;2023-07-13T14:55:37;98749.06;;;21.20
67515;BMP280;60646;55.802;37.032;2023-07-13T14:58:03;98749.19;;;21.22
67515;BMP280;60646;55.802;37.032;2023-07-13T15:00:29;98742.06;;;21.17
67515;BMP280;60646;55.802;37.032;2023-07-13T15:02:56;98753.66;;;21.17